Skip Navigation LinksHome page > Weather > Current weather Skip Navigation Links

Current Weather

San Francisco International, San Francisco

For information only: do not use for flight planning or navigation.
Latest weather
Observation time Sunday, August 2, 2015 4:56 PM PDT
Local time Sunday, August 2, 2015 5:26 PM PDT
Flight conditions Visual Meteorological Conditions
Winds
Wind direction West (270°)
Wind speed 21 mph
Wind gusting to 29 mph
Visibility 10 mi.
Sky condition
Ceiling unlimited
Cloud layer scattered clouds 20,000 ft.
Temperature 70°F
Dewpoint 55°F
Altimeter 29.92 in.Hg
Pressure change last 3 hours0.04 in.Hg
Pressure falling more slowly
Derived measurements
Relative humidity 59%
Density altitude 934 ft.
Sea-level pressure 29.92 in.Hg
Climate data
Temperature minimum, last 6 hours 65°F
Temperature maximum, last 6 hours 71°F
Remarks
Automated weather observing station with precipitation discriminator.
METAR KSFO 022356Z 27018G25KT 10SM SCT200 21/13 A2992 RMK AO2 SLP133 T02110128 10217 20183 56015

Settings

Location code

InnerDrive.Weather 4.0.5567.0 Release CLR 4.0.30319.34014
Copyright ©2015 Inner Drive Technology. All rights reserved. Portions Copyright ©1986-2015 David Braverman.

Find weather

Site navigation


Skip Navigation Links

Place info

Page info

PayPal - The safer, easier way to pay online!

Return home.

Copyright ©2015 Inner Drive Technology. Purveyors of fine, hand-crafted computer software. Page printed 2015-08-03T00:26:10 UTC.